Time;durP1;ratioP1;P1;durP2;ratioP2;P2;SDS_P1;SDS_P2;PMS_P1;PMS_P2;Temp;Humidity;BMP_temperature;BMP_pressure;BME280_temperature;BME280_humidity;BME280_pressure;Samples;Min_cycle;Max_cycle;Signal;HPM_P1;HPM_P2
2023/10/21 00:01:48;;;;;;;;;;;10.60;99.90;;;;;;5134347;27;19913;-51
2023/10/21 00:04:14;;;;;;;;;;;10.60;99.90;;;;;;5135196;27;20421;-52
2023/10/21 00:06:40;;;;;;;;;;;10.50;99.90;;;;;;5128279;27;20267;-54
2023/10/21 00:09:05;;;;;;;;;;;10.50;99.90;;;;;;5114336;28;19961;-52
2023/10/21 00:11:31;;;;;;;;;;;10.40;99.90;;;;;;5114166;28;20007;-51
2023/10/21 00:13:57;;;;;;;;;;;10.50;99.90;;;;;;5114122;28;19914;-51
2023/10/21 00:16:23;;;;;;;;;;;10.40;99.90;;;;;;5114420;28;19965;-52
2023/10/21 00:18:48;;;;;;;;;;;10.40;99.90;;;;;;5114097;28;19908;-52
2023/10/21 00:21:14;;;;;;;;;;;10.40;99.90;;;;;;5114407;28;19933;-53
2023/10/21 00:23:39;;;;;;;;;;;10.30;99.90;;;;;;5114254;28;19963;-51
2023/10/21 00:26:06;;;;;;;;;;;10.30;99.90;;;;;;5113922;28;19908;-51
2023/10/21 00:28:32;;;;;;;;;;;10.30;99.90;;;;;;5121557;27;19911;-51
2023/10/21 00:31:01;;;;;;;;;;;10.30;99.90;;;;;;5134340;27;20005;-50
2023/10/21 00:33:26;;;;;;;;;;;10.20;99.90;;;;;;5134647;27;19907;-49
2023/10/21 00:35:52;;;;;;;;;;;10.30;99.90;;;;;;5134305;27;20278;-51
2023/10/21 00:38:17;;;;;;;;;;;10.30;99.90;;;;;;5133731;27;19926;-48
2023/10/21 00:40:52;;;;;;;;;;;10.20;99.90;;;;;;5134270;27;19947;-51
2023/10/21 00:43:38;;;;;;;;;;;10.30;99.90;;;;;;5134162;27;19961;-52
2023/10/21 00:46:26;;;;;;;;;;;10.20;99.90;;;;;;5134195;27;19907;-48
2023/10/21 00:48:51;;;;;;;;;;;10.30;99.90;;;;;;5134222;27;19911;-49
2023/10/21 00:51:18;;;;;;;;;;;10.30;99.90;;;;;;5134090;27;19972;-52
2023/10/21 00:53:44;;;;;;;;;;;10.30;99.90;;;;;;5134074;27;19934;-48
2023/10/21 00:56:10;;;;;;;;;;;10.30;99.90;;;;;;5134122;27;20346;-52
2023/10/21 00:58:36;;;;;;;;;;;10.30;99.90;;;;;;5134077;27;19933;-48
2023/10/21 01:01:09;;;;;;;;;;;10.30;99.90;;;;;;5133945;27;19907;-51
2023/10/21 01:03:35;;;;;;;;;;;10.20;99.90;;;;;;5133963;27;20285;-49
2023/10/21 01:06:01;;;;;;;;;;;10.20;99.90;;;;;;5133932;27;19908;-47
2023/10/21 01:08:26;;;;;;;;;;;10.20;99.90;;;;;;5113497;28;19918;-46
2023/10/21 01:10:52;;;;;;;;;;;10.20;99.90;;;;;;5113321;28;19981;-48
2023/10/21 01:13:18;;;;;;;;;;;10.20;99.90;;;;;;5114254;27;19916;-52
2023/10/21 01:15:43;;;;;;;;;;;10.20;99.90;;;;;;5113346;28;19912;-50
2023/10/21 01:18:09;;;;;;;;;;;10.20;99.90;;;;;;5113176;28;19912;-51
2023/10/21 01:20:41;;;;;;;;;;;10.10;99.90;;;;;;5113319;28;20378;-50
2023/10/21 01:23:07;;;;;;;;;;;10.10;99.90;;;;;;5120732;28;20300;-48
2023/10/21 01:25:33;;;;;;;;;;;10.10;99.90;;;;;;5133778;28;19907;-49
2023/10/21 01:27:59;;;;;;;;;;;10.10;99.90;;;;;;5133583;28;19907;-50
2023/10/21 01:30:24;;;;;;;;;;;10.20;99.90;;;;;;5133641;28;19960;-48
2023/10/21 01:32:50;;;;;;;;;;;10.10;99.90;;;;;;5133571;28;19959;-51
2023/10/21 01:35:16;;;;;;;;;;;10.10;99.90;;;;;;5133643;28;19908;-47
2023/10/21 01:37:44;;;;;;;;;;;10.10;99.90;;;;;;5120894;27;20450;-50
2023/10/21 01:40:10;;;;;;;;;;;10.10;99.90;;;;;;5113148;28;19961;-47
2023/10/21 01:42:41;;;;;;;;;;;10.00;99.90;;;;;;5113110;28;19908;-51
2023/10/21 01:45:08;;;;;;;;;;;9.90;99.90;;;;;;5112885;28;19958;-51
2023/10/21 01:47:34;;;;;;;;;;;9.90;99.90;;;;;;5112855;28;20374;-50
2023/10/21 01:49:59;;;;;;;;;;;9.80;99.90;;;;;;5112960;28;19942;-48
2023/10/21 01:52:25;;;;;;;;;;;9.80;99.90;;;;;;5113143;28;20298;-47
2023/10/21 01:54:51;;;;;;;;;;;9.80;99.90;;;;;;5112860;28;19998;-46
2023/10/21 01:57:16;;;;;;;;;;;9.80;99.90;;;;;;5112989;28;19994;-50
2023/10/21 01:59:43;;;;;;;;;;;9.80;99.90;;;;;;5112871;28;19915;-47
2023/10/21 02:02:09;;;;;;;;;;;9.80;99.90;;;;;;5112898;28;19908;-50
2023/10/21 02:04:34;;;;;;;;;;;9.80;99.90;;;;;;5112812;28;19964;-47
2023/10/21 02:07:00;;;;;;;;;;;9.80;99.90;;;;;;5118257;28;19949;-49
2023/10/21 02:09:25;;;;;;;;;;;9.80;99.90;;;;;;5132862;28;20377;-50
2023/10/21 02:11:57;;;;;;;;;;;9.80;99.90;;;;;;5133173;28;20044;-50
2023/10/21 02:14:23;;;;;;;;;;;9.70;99.90;;;;;;5133163;28;19928;-51
2023/10/21 02:16:53;;;;;;;;;;;9.80;99.90;;;;;;5133121;28;19994;-47
2023/10/21 02:19:18;;;;;;;;;;;9.80;99.90;;;;;;5133260;28;19948;-46
2023/10/21 02:21:44;;;;;;;;;;;9.80;99.90;;;;;;5133214;28;19996;-47
2023/10/21 02:24:10;;;;;;;;;;;9.80;99.90;;;;;;5133167;27;19907;-47
2023/10/21 02:26:35;;;;;;;;;;;9.90;99.90;;;;;;5136961;27;19907;-48
2023/10/21 02:29:00;;;;;;;;;;;9.90;99.90;;;;;;5136722;27;19937;-48
2023/10/21 02:31:26;;;;;;;;;;;9.90;99.90;;;;;;5136848;27;20289;-48
2023/10/21 02:33:52;;;;;;;;;;;10.00;99.90;;;;;;5136637;27;19911;-47
2023/10/21 02:36:18;;;;;;;;;;;10.00;99.90;;;;;;5136562;27;20373;-47
2023/10/21 02:38:44;;;;;;;;;;;10.00;99.90;;;;;;5136465;27;19920;-48
2023/10/21 02:41:10;;;;;;;;;;;10.10;99.90;;;;;;5136761;27;19911;-48
2023/10/21 02:43:37;;;;;;;;;;;10.10;99.90;;;;;;5135911;27;20299;-49
2023/10/21 02:46:06;;;;;;;;;;;10.10;99.90;;;;;;5136171;27;19922;-47
2023/10/21 02:48:32;;;;;;;;;;;10.10;99.90;;;;;;5136629;27;19961;-48
2023/10/21 02:50:57;;;;;;;;;;;10.10;99.90;;;;;;5136424;27;19915;-47
2023/10/21 02:53:23;;;;;;;;;;;10.10;99.90;;;;;;5136459;27;19908;-51
2023/10/21 02:55:49;;;;;;;;;;;10.10;99.90;;;;;;5136456;27;19909;-49
2023/10/21 02:58:14;;;;;;;;;;;10.20;99.90;;;;;;5136226;27;19976;-49
2023/10/21 03:00:40;;;;;;;;;;;10.10;99.90;;;;;;5136426;27;19907;-47
2023/10/21 03:03:06;;;;;;;;;;;10.20;99.90;;;;;;5136087;27;19907;-48
2023/10/21 03:05:31;;;;;;;;;;;10.20;99.90;;;;;;5136297;27;19908;-47
2023/10/21 03:07:57;;;;;;;;;;;10.20;99.90;;;;;;5135751;27;20281;-46
2023/10/21 03:10:22;;;;;;;;;;;10.30;99.90;;;;;;5135743;27;19911;-47
2023/10/21 03:12:48;;;;;;;;;;;10.30;99.90;;;;;;5130284;27;19961;-48
2023/10/21 03:15:13;;;;;;;;;;;10.30;99.90;;;;;;5121430;27;19967;-47
2023/10/21 03:17:39;;;;;;;;;;;10.30;99.90;;;;;;5136111;27;19937;-47
2023/10/21 03:20:06;;;;;;;;;;;10.40;99.90;;;;;;5123397;27;19965;-47
2023/10/21 03:22:32;;;;;;;;;;;10.40;99.90;;;;;;5115285;28;19959;-46
2023/10/21 03:24:57;;;;;;;;;;;10.40;99.90;;;;;;5115280;28;19908;-48
2023/10/21 03:27:23;;;;;;;;;;;10.30;99.90;;;;;;5115211;28;19908;-48
2023/10/21 03:29:49;;;;;;;;;;;10.40;99.90;;;;;;5115176;28;19915;-46
2023/10/21 03:32:15;;;;;;;;;;;10.30;99.90;;;;;;5115255;28;19923;-47
2023/10/21 03:34:40;;;;;;;;;;;10.30;99.90;;;;;;5115128;28;20282;-47
2023/10/21 03:37:06;;;;;;;;;;;10.30;99.90;;;;;;5119681;27;19973;-50
2023/10/21 03:39:32;;;;;;;;;;;10.20;99.90;;;;;;5134318;27;19942;-47
2023/10/21 03:41:57;;;;;;;;;;;10.20;99.90;;;;;;5114719;28;19911;-47
2023/10/21 03:44:23;;;;;;;;;;;10.20;99.90;;;;;;5114958;28;19915;-46
2023/10/21 03:46:48;;;;;;;;;;;10.20;99.90;;;;;;5114882;28;19908;-46
2023/10/21 03:49:14;;;;;;;;;;;10.20;99.90;;;;;;5114795;28;19930;-46
2023/10/21 03:51:39;;;;;;;;;;;10.20;99.90;;;;;;5114742;28;19916;-46
2023/10/21 03:54:05;;;;;;;;;;;10.20;99.90;;;;;;5114497;28;20008;-49
2023/10/21 03:56:31;;;;;;;;;;;10.30;99.90;;;;;;5125794;27;19915;-48
2023/10/21 03:58:57;;;;;;;;;;;10.30;99.90;;;;;;5135199;27;19933;-46
2023/10/21 04:01:22;;;;;;;;;;;10.30;99.90;;;;;;5135259;27;20371;-47
2023/10/21 04:03:48;;;;;;;;;;;10.40;99.90;;;;;;5135319;27;19915;-46
2023/10/21 04:06:15;;;;;;;;;;;10.50;99.90;;;;;;5135062;27;19912;-46
2023/10/21 04:08:41;;;;;;;;;;;10.50;99.90;;;;;;5134837;27;20362;-47
2023/10/21 04:11:06;;;;;;;;;;;10.60;99.90;;;;;;5134745;27;19922;-45
2023/10/21 04:13:32;;;;;;;;;;;10.60;99.90;;;;;;5134835;27;19908;-47
2023/10/21 04:15:59;;;;;;;;;;;10.60;99.90;;;;;;5120354;27;19998;-46
2023/10/21 04:18:24;;;;;;;;;;;10.60;99.90;;;;;;5114174;28;20375;-46
2023/10/21 04:20:50;;;;;;;;;;;10.60;99.90;;;;;;5114161;28;19961;-46
2023/10/21 04:23:15;;;;;;;;;;;10.60;99.90;;;;;;5114134;28;19961;-47
2023/10/21 04:25:41;;;;;;;;;;;10.60;99.90;;;;;;5114101;28;19953;-48
2023/10/21 04:28:07;;;;;;;;;;;10.60;99.90;;;;;;5113970;28;20354;-48
2023/10/21 04:30:32;;;;;;;;;;;10.60;99.90;;;;;;5114107;28;19911;-48
2023/10/21 04:32:58;;;;;;;;;;;10.60;99.90;;;;;;5113706;28;20393;-47
2023/10/21 04:35:23;;;;;;;;;;;10.60;99.90;;;;;;5113851;28;20048;-46
2023/10/21 04:37:49;;;;;;;;;;;10.60;99.90;;;;;;5113592;27;19920;-48
2023/10/21 04:40:15;;;;;;;;;;;10.50;99.90;;;;;;5113750;28;19908;-47
2023/10/21 04:42:41;;;;;;;;;;;10.60;99.90;;;;;;5123400;27;19918;-47
2023/10/21 04:45:08;;;;;;;;;;;10.60;99.90;;;;;;5121747;27;20007;-49
2023/10/21 04:47:33;;;;;;;;;;;10.60;99.90;;;;;;5134258;27;19930;-48
2023/10/21 04:49:59;;;;;;;;;;;10.60;99.90;;;;;;5134145;27;20346;-47
2023/10/21 04:52:24;;;;;;;;;;;10.60;99.90;;;;;;5134129;27;20412;-47
2023/10/21 04:54:50;;;;;;;;;;;10.60;99.90;;;;;;5131878;27;19954;-46
2023/10/21 04:57:16;;;;;;;;;;;10.60;99.90;;;;;;5115716;27;19918;-46
2023/10/21 04:59:42;;;;;;;;;;;10.60;99.90;;;;;;5134049;27;19907;-46
2023/10/21 05:02:07;;;;;;;;;;;10.60;99.90;;;;;;5133959;27;19953;-46
2023/10/21 05:04:33;;;;;;;;;;;10.70;99.90;;;;;;5133841;27;19907;-47
2023/10/21 05:06:59;;;;;;;;;;;10.70;99.90;;;;;;5133923;27;20341;-47
2023/10/21 05:09:24;;;;;;;;;;;10.70;99.90;;;;;;5123743;27;19915;-46
2023/10/21 05:11:50;;;;;;;;;;;10.70;99.90;;;;;;5121576;27;20006;-48
2023/10/21 05:14:15;;;;;;;;;;;10.70;99.90;;;;;;5118725;27;19908;-48
2023/10/21 05:16:41;;;;;;;;;;;10.70;99.90;;;;;;5113305;28;19907;-46
2023/10/21 05:19:06;;;;;;;;;;;10.70;99.90;;;;;;5113147;28;19915;-46
2023/10/21 05:21:32;;;;;;;;;;;10.70;99.90;;;;;;5117090;27;20370;-48
2023/10/21 05:23:58;;;;;;;;;;;10.70;99.90;;;;;;5119646;27;19916;-47
2023/10/21 05:26:24;;;;;;;;;;;10.70;99.90;;;;;;5116693;28;19934;-47
2023/10/21 05:28:49;;;;;;;;;;;10.70;99.90;;;;;;5132697;28;20380;-47
2023/10/21 05:31:15;;;;;;;;;;;10.70;99.90;;;;;;5131102;28;20270;-47
2023/10/21 05:33:40;;;;;;;;;;;10.70;99.90;;;;;;5129166;28;20345;-46
2023/10/21 05:36:06;;;;;;;;;;;10.70;99.90;;;;;;5131155;28;19918;-47
2023/10/21 05:38:32;;;;;;;;;;;10.70;99.90;;;;;;5132604;27;20026;-50
2023/10/21 05:40:58;;;;;;;;;;;10.70;99.90;;;;;;5132820;28;19907;-47
2023/10/21 05:43:23;;;;;;;;;;;10.80;99.90;;;;;;5133009;28;19968;-48
2023/10/21 05:45:49;;;;;;;;;;;10.80;99.90;;;;;;5132901;28;19907;-48
2023/10/21 05:48:14;;;;;;;;;;;10.80;99.90;;;;;;5129207;28;20370;-46
2023/10/21 05:50:40;;;;;;;;;;;10.80;99.90;;;;;;5122003;28;19919;-47
2023/10/21 05:53:05;;;;;;;;;;;10.80;99.90;;;;;;5129486;28;19918;-48
2023/10/21 05:55:31;;;;;;;;;;;10.80;99.90;;;;;;5131926;28;20255;-46
2023/10/21 05:57:56;;;;;;;;;;;10.80;99.90;;;;;;5132936;28;19908;-47
2023/10/21 06:00:22;;;;;;;;;;;10.80;99.90;;;;;;5135356;27;19914;-47
2023/10/21 06:02:47;;;;;;;;;;;10.80;99.90;;;;;;5137383;27;20370;-47
2023/10/21 06:05:16;;;;;;;;;;;10.80;99.90;;;;;;5137525;27;19907;-46
2023/10/21 06:07:42;;;;;;;;;;;10.80;99.90;;;;;;5132078;27;20399;-47
2023/10/21 06:10:07;;;;;;;;;;;10.90;99.90;;;;;;5137226;27;19907;-48
2023/10/21 06:12:33;;;;;;;;;;;10.80;99.90;;;;;;5137051;27;19938;-47
2023/10/21 06:14:59;;;;;;;;;;;10.80;99.90;;;;;;5132378;27;19921;-47
2023/10/21 06:17:24;;;;;;;;;;;10.90;99.90;;;;;;5126240;27;19915;-47
2023/10/21 06:19:50;;;;;;;;;;;10.80;99.90;;;;;;5135743;27;20005;-46
2023/10/21 06:22:16;;;;;;;;;;;10.90;99.90;;;;;;5132871;27;19907;-46
2023/10/21 06:24:41;;;;;;;;;;;10.90;99.90;;;;;;5135898;27;19914;-46
2023/10/21 06:27:07;;;;;;;;;;;10.90;99.90;;;;;;5135833;27;19929;-48
2023/10/21 06:29:33;;;;;;;;;;;10.90;99.90;;;;;;5136059;27;19968;-46
2023/10/21 06:31:58;;;;;;;;;;;10.90;99.90;;;;;;5135792;27;19915;-48
2023/10/21 06:34:24;;;;;;;;;;;10.90;99.90;;;;;;5135995;27;19994;-46
2023/10/21 06:36:49;;;;;;;;;;;10.90;99.90;;;;;;5135598;27;20354;-46
2023/10/21 06:39:15;;;;;;;;;;;10.90;99.90;;;;;;5122811;27;20064;-49
2023/10/21 06:41:40;;;;;;;;;;;11.00;99.90;;;;;;5122827;27;19912;-46
2023/10/21 06:44:06;;;;;;;;;;;11.00;99.90;;;;;;5133194;27;20392;-46
2023/10/21 06:46:32;;;;;;;;;;;11.00;99.90;;;;;;5129843;27;20021;-48
2023/10/21 06:48:57;;;;;;;;;;;11.00;99.90;;;;;;5124978;27;20318;-47
2023/10/21 06:51:23;;;;;;;;;;;11.10;99.90;;;;;;5124410;27;19927;-48
2023/10/21 06:53:49;;;;;;;;;;;11.10;99.90;;;;;;5135706;27;19962;-47
2023/10/21 06:56:14;;;;;;;;;;;11.10;99.90;;;;;;5135931;27;19914;-47
2023/10/21 06:58:40;;;;;;;;;;;11.10;99.90;;;;;;5134470;27;19911;-46
2023/10/21 07:01:06;;;;;;;;;;;11.20;99.90;;;;;;5125064;27;19911;-45
2023/10/21 07:03:32;;;;;;;;;;;11.10;99.90;;;;;;5128142;27;19919;-46
2023/10/21 07:05:58;;;;;;;;;;;11.20;99.90;;;;;;5125409;27;19912;-46
2023/10/21 07:08:23;;;;;;;;;;;11.20;99.90;;;;;;5130519;27;19913;-47
2023/10/21 07:10:49;;;;;;;;;;;11.20;99.90;;;;;;5125039;27;19922;-45
2023/10/21 07:13:14;;;;;;;;;;;11.20;99.90;;;;;;5132020;27;20319;-46
2023/10/21 07:15:40;;;;;;;;;;;11.30;99.90;;;;;;5127858;27;19960;-46
2023/10/21 07:18:07;;;;;;;;;;;11.30;99.90;;;;;;5134486;27;19950;-46
2023/10/21 07:20:33;;;;;;;;;;;11.30;99.90;;;;;;5134463;27;20358;-48
2023/10/21 07:22:58;;;;;;;;;;;11.30;99.90;;;;;;5134330;27;19919;-47
2023/10/21 07:25:24;;;;;;;;;;;11.40;99.90;;;;;;5134584;27;19929;-46
2023/10/21 07:27:50;;;;;;;;;;;11.40;99.90;;;;;;5134417;27;19911;-46
2023/10/21 07:30:15;;;;;;;;;;;11.50;99.90;;;;;;5134431;27;19915;-47
2023/10/21 07:32:41;;;;;;;;;;;11.50;99.90;;;;;;5134372;27;19922;-50
2023/10/21 07:35:07;;;;;;;;;;;11.50;99.90;;;;;;5131867;27;19963;-46
2023/10/21 07:37:33;;;;;;;;;;;11.60;99.90;;;;;;5133485;27;19919;-46
2023/10/21 07:39:58;;;;;;;;;;;11.50;99.90;;;;;;5134093;27;19914;-46
2023/10/21 07:42:24;;;;;;;;;;;11.60;99.90;;;;;;5134413;27;19995;-47
2023/10/21 07:44:50;;;;;;;;;;;11.60;99.90;;;;;;5131179;27;19912;-46
2023/10/21 07:47:16;;;;;;;;;;;11.70;99.90;;;;;;5134206;27;19911;-47
2023/10/21 07:49:41;;;;;;;;;;;11.80;99.90;;;;;;5128950;27;20285;-45
2023/10/21 07:52:07;;;;;;;;;;;11.80;99.90;;;;;;5129717;27;20281;-46
2023/10/21 07:54:32;;;;;;;;;;;11.90;99.90;;;;;;5131462;27;19911;-46
2023/10/21 07:56:58;;;;;;;;;;;11.90;99.90;;;;;;5131475;27;19930;-46
2023/10/21 07:59:27;;;;;;;;;;;11.90;99.90;;;;;;5129307;27;19918;-47
2023/10/21 08:01:53;;;;;;;;;;;12.00;99.90;;;;;;5127739;27;19952;-46
2023/10/21 08:04:18;;;;;;;;;;;12.10;99.90;;;;;;5115287;27;19912;-46
2023/10/21 08:06:44;;;;;;;;;;;12.20;99.90;;;;;;5128142;27;19960;-46
2023/10/21 08:09:09;;;;;;;;;;;12.30;99.90;;;;;;5134896;27;19946;-48
2023/10/21 08:11:35;;;;;;;;;;;12.40;99.90;;;;;;5128683;27;20350;-47
2023/10/21 08:14:00;;;;;;;;;;;12.50;99.90;;;;;;5126276;27;19911;-47
2023/10/21 08:16:26;;;;;;;;;;;12.60;99.90;;;;;;5121378;27;19972;-47
2023/10/21 08:18:51;;;;;;;;;;;12.70;99.90;;;;;;5115194;27;19919;-49
2023/10/21 08:21:18;;;;;;;;;;;12.80;99.90;;;;;;5126419;27;20387;-46
2023/10/21 08:23:43;;;;;;;;;;;12.90;99.90;;;;;;5119889;27;19918;-49
2023/10/21 08:26:09;;;;;;;;;;;12.90;99.90;;;;;;5112199;27;20278;-46
2023/10/21 08:28:34;;;;;;;;;;;13.00;99.90;;;;;;5113982;28;19908;-47
2023/10/21 08:31:00;;;;;;;;;;;13.00;99.90;;;;;;5113864;28;19912;-47
2023/10/21 08:33:26;;;;;;;;;;;13.10;99.90;;;;;;5113962;28;19953;-47
2023/10/21 08:35:52;;;;;;;;;;;13.10;99.90;;;;;;5113734;28;19916;-47
2023/10/21 08:38:17;;;;;;;;;;;13.10;99.90;;;;;;5113439;27;19926;-46
2023/10/21 08:40:46;;;;;;;;;;;13.20;99.90;;;;;;5113783;28;19943;-46
2023/10/21 08:43:18;;;;;;;;;;;13.20;99.90;;;;;;5115782;27;19912;-46
2023/10/21 08:45:44;;;;;;;;;;;13.20;99.90;;;;;;5113509;28;19912;-45
2023/10/21 08:48:11;;;;;;;;;;;13.30;99.90;;;;;;5113630;28;19908;-46
2023/10/21 08:50:38;;;;;;;;;;;13.40;99.90;;;;;;5129015;27;19994;-46
2023/10/21 08:53:05;;;;;;;;;;;13.40;99.90;;;;;;5132976;27;19922;-50
2023/10/21 08:55:32;;;;;;;;;;;13.50;99.90;;;;;;5118349;27;19912;-46
2023/10/21 08:57:57;;;;;;;;;;;13.50;99.90;;;;;;5113528;28;19908;-47
2023/10/21 09:00:23;;;;;;;;;;;13.50;99.90;;;;;;5114943;27;19931;-47
2023/10/21 09:02:49;;;;;;;;;;;13.50;99.90;;;;;;5130425;27;19918;-47
2023/10/21 09:05:14;;;;;;;;;;;13.60;99.90;;;;;;5126008;27;19907;-46
2023/10/21 09:07:49;;;;;;;;;;;13.70;99.90;;;;;;5113429;28;19912;-47
2023/10/21 09:10:16;;;;;;;;;;;13.70;99.90;;;;;;5113295;28;19976;-47
2023/10/21 09:12:41;;;;;;;;;;;13.70;99.90;;;;;;5113481;28;19923;-48
2023/10/21 09:15:09;;;;;;;;;;;13.80;99.90;;;;;;5113216;28;19912;-47
2023/10/21 09:17:35;;;;;;;;;;;13.80;99.90;;;;;;5113243;28;19907;-47
2023/10/21 09:20:07;;;;;;;;;;;13.90;99.90;;;;;;5113317;27;19912;-48
2023/10/21 09:22:34;;;;;;;;;;;14.00;99.90;;;;;;5113322;28;19912;-46
2023/10/21 09:25:08;;;;;;;;;;;14.00;99.90;;;;;;5113225;28;19915;-46
2023/10/21 09:27:34;;;;;;;;;;;14.10;99.90;;;;;;5125132;27;19912;-47
2023/10/21 09:30:00;;;;;;;;;;;14.10;99.90;;;;;;5131623;28;19911;-47
2023/10/21 09:32:29;;;;;;;;;;;14.10;99.90;;;;;;5133745;28;19959;-48
2023/10/21 09:35:11;;;;;;;;;;;14.10;99.90;;;;;;5134704;27;19907;-47
2023/10/21 09:37:37;;;;;;;;;;;14.10;99.90;;;;;;5137733;27;19959;-48
2023/10/21 09:40:02;;;;;;;;;;;14.20;99.90;;;;;;5137898;27;19946;-46
2023/10/21 09:42:28;;;;;;;;;;;14.10;99.90;;;;;;5137743;27;19907;-47
2023/10/21 09:44:54;;;;;;;;;;;14.10;99.90;;;;;;5132963;27;19938;-47
2023/10/21 09:47:21;;;;;;;;;;;14.10;99.90;;;;;;5137254;27;20278;-48
2023/10/21 09:49:48;;;;;;;;;;;14.00;99.90;;;;;;5137568;27;19911;-47
2023/10/21 09:52:15;;;;;;;;;;;14.00;99.90;;;;;;5133907;27;19919;-48
2023/10/21 09:54:47;;;;;;;;;;;14.00;99.90;;;;;;5125412;27;20358;-49
2023/10/21 09:57:13;;;;;;;;;;;14.00;99.90;;;;;;5127769;27;19923;-47
2023/10/21 09:59:39;;;;;;;;;;;14.00;99.90;;;;;;5129314;27;19938;-47
2023/10/21 10:02:06;;;;;;;;;;;14.00;99.90;;;;;;5129297;27;19912;-47
2023/10/21 10:04:33;;;;;;;;;;;14.00;99.90;;;;;;5126354;27;20353;-46
2023/10/21 10:06:59;;;;;;;;;;;14.00;99.90;;;;;;5131556;27;19915;-47
2023/10/21 10:09:28;;;;;;;;;;;14.00;99.90;;;;;;5114689;27;20045;-50
2023/10/21 10:12:00;;;;;;;;;;;13.90;99.90;;;;;;5133872;27;19964;-49
2023/10/21 10:14:28;;;;;;;;;;;13.90;99.90;;;;;;5136661;27;19915;-48
2023/10/21 10:16:54;;;;;;;;;;;13.90;99.90;;;;;;5137624;27;19907;-47
2023/10/21 10:19:35;;;;;;;;;;;13.90;99.90;;;;;;5136820;27;20257;-49
2023/10/21 10:22:15;;;;;;;;;;;13.90;99.90;;;;;;5135126;27;20358;-47
2023/10/21 10:24:44;;;;;;;;;;;13.90;99.90;;;;;;5136636;27;19914;-46
2023/10/21 10:27:11;;;;;;;;;;;13.90;99.90;;;;;;5136218;27;19911;-47
2023/10/21 10:29:37;;;;;;;;;;;13.90;99.90;;;;;;5136527;27;19955;-47
2023/10/21 10:32:14;;;;;;;;;;;13.90;99.90;;;;;;5122095;27;21018;-47
2023/10/21 10:35:00;;;;;;;;;;;13.90;99.90;;;;;;5127252;27;19975;-46
2023/10/21 10:37:34;;;;;;;;;;;14.00;99.90;;;;;;5135810;27;19926;-47
2023/10/21 10:40:05;;;;;;;;;;;14.20;99.90;;;;;;5135435;27;20004;-47
2023/10/21 10:42:35;;;;;;;;;;;14.20;99.90;;;;;;5115529;28;19907;-46
2023/10/21 10:45:01;;;;;;;;;;;14.30;99.90;;;;;;5115929;28;19912;-52
2023/10/21 10:47:29;;;;;;;;;;;14.20;99.90;;;;;;5115839;28;20006;-48
2023/10/21 10:49:58;;;;;;;;;;;14.20;99.90;;;;;;5116545;28;19994;-48
2023/10/21 10:52:27;;;;;;;;;;;14.20;99.90;;;;;;5117286;27;19920;-52
2023/10/21 10:54:53;;;;;;;;;;;14.40;99.90;;;;;;5116468;28;19908;-53
2023/10/21 10:57:20;;;;;;;;;;;14.60;99.90;;;;;;5116390;28;19914;-53
2023/10/21 10:59:47;;;;;;;;;;;14.60;99.90;;;;;;5125589;27;19915;-51
2023/10/21 11:02:14;;;;;;;;;;;14.50;99.90;;;;;;5119148;27;19916;-53
2023/10/21 11:04:44;;;;;;;;;;;14.40;99.90;;;;;;5118028;27;19912;-53
2023/10/21 11:07:12;;;;;;;;;;;14.40;99.90;;;;;;5131636;27;19990;-46
2023/10/21 11:09:38;;;;;;;;;;;14.40;99.90;;;;;;5119840;27;19907;-54
2023/10/21 11:12:04;;;;;;;;;;;14.50;99.90;;;;;;5121569;27;20350;-50
2023/10/21 11:14:29;;;;;;;;;;;14.60;99.90;;;;;;5136591;27;19908;-49
2023/10/21 11:16:55;;;;;;;;;;;14.50;99.90;;;;;;5136659;27;20065;-49
2023/10/21 11:19:22;;;;;;;;;;;14.50;99.90;;;;;;5136052;27;19915;-50
2023/10/21 11:21:51;;;;;;;;;;;14.50;99.90;;;;;;5135892;27;19934;-50
2023/10/21 11:24:19;;;;;;;;;;;14.50;99.90;;;;;;5136408;27;19915;-51
2023/10/21 11:26:45;;;;;;;;;;;14.60;99.90;;;;;;5136007;27;20346;-47
2023/10/21 11:29:11;;;;;;;;;;;14.60;99.90;;;;;;5134601;27;19911;-48
2023/10/21 11:31:36;;;;;;;;;;;14.50;99.90;;;;;;5135559;27;19923;-49
2023/10/21 11:34:21;;;;;;;;;;;14.50;99.90;;;;;;5133470;27;19914;-48
2023/10/21 11:36:48;;;;;;;;;;;14.40;99.90;;;;;;5119675;27;19922;-49
2023/10/21 11:39:17;;;;;;;;;;;14.40;99.90;;;;;;5134701;27;19915;-53
2023/10/21 11:41:42;;;;;;;;;;;14.40;99.90;;;;;;5120149;27;19918;-50
2023/10/21 11:44:08;;;;;;;;;;;14.30;99.90;;;;;;5127781;27;19916;-52
2023/10/21 11:46:36;;;;;;;;;;;14.30;99.90;;;;;;5124016;27;19912;-47
2023/10/21 11:49:04;;;;;;;;;;;14.30;99.90;;;;;;5126204;27;19993;-50
2023/10/21 11:51:30;;;;;;;;;;;14.30;99.90;;;;;;5122855;27;19920;-50
2023/10/21 11:53:56;;;;;;;;;;;14.30;99.90;;;;;;5119001;27;19912;-49
2023/10/21 11:56:55;;;;;;;;;;;14.20;99.90;;;;;;5120283;27;19956;-49
2023/10/21 12:07:33;;;;;;;;;;;14.10;99.90;;;;;;5125266;27;20026;-51
2023/10/21 12:13:24;;;;;;;;;;;14.10;99.90;;;;;;5133719;27;19926;-47
2023/10/21 12:24:28;;;;;;;;;;;14.20;99.90;;;;;;5129891;27;20025;-48
2023/10/21 12:39:44;;;;;;;;;;;15.20;99.90;;;;;;5126651;27;19947;-47
2023/10/21 12:42:21;;;;;;;;;;;15.20;99.90;;;;;;5123375;27;19942;-47
2023/10/21 12:44:52;;;;;;;;;;;15.10;99.90;;;;;;5123036;27;20287;-47
2023/10/21 12:47:18;;;;;;;;;;;15.00;99.90;;;;;;5124408;27;19912;-49
2023/10/21 12:49:45;;;;;;;;;;;15.00;99.90;;;;;;5123549;27;19912;-52
2023/10/21 12:52:11;;;;;;;;;;;14.90;99.90;;;;;;5121015;27;19924;-47
2023/10/21 12:54:37;;;;;;;;;;;14.90;99.90;;;;;;5133946;27;19908;-50
2023/10/21 12:57:02;;;;;;;;;;;14.80;99.90;;;;;;5129700;27;19911;-47
2023/10/21 12:59:28;;;;;;;;;;;14.90;99.90;;;;;;5112762;28;19912;-48
2023/10/21 13:01:54;;;;;;;;;;;14.90;99.90;;;;;;5114792;27;20003;-49
2023/10/21 13:04:19;;;;;;;;;;;14.90;99.90;;;;;;5130604;27;20313;-51
2023/10/21 13:06:44;;;;;;;;;;;14.90;99.90;;;;;;5133444;27;20415;-51
2023/10/21 13:09:24;;;;;;;;;;;14.90;99.90;;;;;;5115714;27;20007;-50
2023/10/21 13:11:52;;;;;;;;;;;15.00;99.90;;;;;;5117970;27;20377;-51
2023/10/21 13:14:18;;;;;;;;;;;15.40;99.90;;;;;;5119535;27;20014;-51
2023/10/21 13:16:45;;;;;;;;;;;15.50;99.90;;;;;;5121042;27;20014;-50
2023/10/21 13:19:11;;;;;;;;;;;15.60;99.90;;;;;;5133514;27;19918;-48
2023/10/21 13:21:36;;;;;;;;;;;15.60;99.90;;;;;;5133380;27;19912;-48
2023/10/21 13:24:04;;;;;;;;;;;15.50;99.90;;;;;;5131870;27;19911;-47
2023/10/21 13:26:30;;;;;;;;;;;15.50;99.90;;;;;;5133565;27;19912;-47
2023/10/21 13:28:56;;;;;;;;;;;15.80;99.90;;;;;;5132964;27;19911;-48
2023/10/21 13:31:22;;;;;;;;;;;16.00;99.90;;;;;;5132998;28;20362;-49
2023/10/21 13:33:48;;;;;;;;;;;15.90;99.90;;;;;;5132241;28;19998;-49
2023/10/21 13:36:13;;;;;;;;;;;15.80;99.90;;;;;;5133446;28;20339;-49
2023/10/21 13:38:38;;;;;;;;;;;15.70;99.90;;;;;;5133452;27;19919;-49
2023/10/21 13:41:05;;;;;;;;;;;15.60;99.90;;;;;;5133605;28;19922;-48
2023/10/21 13:43:30;;;;;;;;;;;15.60;99.90;;;;;;5127487;28;19993;-48
2023/10/21 13:45:56;;;;;;;;;;;15.60;99.90;;;;;;5113032;28;19959;-51
2023/10/21 13:48:21;;;;;;;;;;;15.60;99.90;;;;;;5113038;28;20405;-49
2023/10/21 13:50:50;;;;;;;;;;;15.80;99.90;;;;;;5112939;28;19912;-51
2023/10/21 13:53:17;;;;;;;;;;;16.50;99.90;;;;;;5115484;28;20020;-49
2023/10/21 13:55:46;;;;;;;;;;;17.40;99.90;;;;;;5133563;28;19911;-47
2023/10/21 13:58:13;;;;;;;;;;;18.00;99.90;;;;;;5133549;28;19968;-51
2023/10/21 14:00:38;;;;;;;;;;;18.60;99.90;;;;;;5133396;28;19914;-51
2023/10/21 14:03:15;;;;;;;;;;;19.20;99.90;;;;;;5132361;28;20337;-50
2023/10/21 14:05:42;;;;;;;;;;;19.40;99.90;;;;;;5113028;28;19914;-50
2023/10/21 14:08:08;;;;;;;;;;;19.10;99.90;;;;;;5112915;28;19908;-51
2023/10/21 14:10:36;;;;;;;;;;;18.60;99.90;;;;;;5112892;28;19943;-52
2023/10/21 14:13:02;;;;;;;;;;;18.50;99.90;;;;;;5125300;28;20374;-50
2023/10/21 14:15:28;;;;;;;;;;;18.50;99.90;;;;;;5133272;28;19953;-49
2023/10/21 14:17:53;;;;;;;;;;;18.60;99.90;;;;;;5133293;28;19913;-52
2023/10/21 14:20:19;;;;;;;;;;;18.80;99.90;;;;;;5133098;27;19907;-50
2023/10/21 14:22:44;;;;;;;;;;;18.90;99.90;;;;;;5126423;27;20290;-50
2023/10/21 14:25:10;;;;;;;;;;;18.70;99.90;;;;;;5116555;28;19908;-50
2023/10/21 14:27:37;;;;;;;;;;;18.50;99.90;;;;;;5116543;28;20002;-53
2023/10/21 14:30:09;;;;;;;;;;;18.30;99.90;;;;;;5116340;28;20339;-50
2023/10/21 14:32:38;;;;;;;;;;;18.20;99.90;;;;;;5124215;27;19923;-53
2023/10/21 14:35:09;;;;;;;;;;;18.00;99.90;;;;;;5136896;27;19911;-50
2023/10/21 14:37:35;;;;;;;;;;;18.20;99.90;;;;;;5136707;27;19926;-52
2023/10/21 14:40:10;;;;;;;;;;;18.30;99.90;;;;;;5136832;27;19908;-50
2023/10/21 14:42:36;;;;;;;;;;;18.70;99.90;;;;;;5128738;27;20524;-50
2023/10/21 14:45:04;;;;;;;;;;;19.20;99.90;;;;;;5116196;28;19920;-50
2023/10/21 14:47:30;;;;;;;;;;;19.70;99.90;;;;;;5116296;28;19907;-53
2023/10/21 14:49:57;;;;;;;;;;;19.90;99.90;;;;;;5115984;28;19907;-52